Aeroporto :
LOGIN :

Iscrizione | Disclaimer

   EN    FR    IT 

 










Sommario :    VFR   VFR Marginale   IFR   IFR Intensivo   IFR Molto Intensivo
Visibilità : 
Base nubi : 
>= 8 km
>= 3000ft
5 / 8 km
1000 / 3000 ft
1500m / 5 km
500 / 1000 ft
800 / 1500m
200 / 500 ft
< 800m
< 200 ft
Simboli :   Temporali  Nebbia  Neve Forte  Precipitazioni Forti  Vento > 20 kt
SIGMETs :   Varie  Temporali  Ghiacco  Turbolenza  Onda orograficha  Ceneri Vulcaniche







- Altitudine del aeroporto : 46 ft
- Codice IATA : PAF


LPMT - Montijo Air Base

METARs OBSOLETI :
  • 210000Z 25007KT 9999 TS SCT035CB SCT045 20/17 Q1015

TAF TAF LPMT
Valido dal 21 a 00 ore il 22 a 00 ore UTC


202305Z 2100/2124 VRB02KT 9999 FEW035
TEMPO 2100/2124 VRB15G25KT 4000 TSRA SCT025CB
BECMG 2113/2115 36008KT
Nessun NOTAM noto per questo aeroporto.
1 SIGMET conosciuto per la FIR Lisboa (LPPC) :
 
Temporali affogati
LPPC SIGMET 1 VALID 210030/210330 LPPT
LPPC LISBON FIR EMBD TS FCST S OF N4040 AND E OF W00930 TOP FL380 STNR NC=



MetMap, La meteo Aeronautica in un colpo d'occhio ! - Copyright ORBIFLY Dicembre 2007 - Disclaimer

ORBIFLY MET'MAP TEAM :

Programmazione e sviluppo : Alexandra Zaïnal
Concezione e sviluppo : Baudouin d'Aumeries
Co-Programmazione e sviluppo : Marc-Olivier Méhu
Supporto tecnico e logistico : Manuel Goepfert
Aiuto per la traduzione : Arnaldo La Scala

Contatto : metmap@orbifly.com




FONTI E CREDITI :

   NOAA